sensor_id;sensor_type;location;lat;lon;timestamp;P1;durP1;ratioP1;P2;durP2;ratioP2
51925;SDS011;37952;51.938;15.480;2022-09-12T00:00:42;3.20;;;2.80;;
51925;SDS011;37952;51.938;15.480;2022-09-12T00:04:05;2.30;;;2.20;;
51925;SDS011;37952;51.938;15.480;2022-09-12T00:07:08;2.40;;;2.30;;
51925;SDS011;37952;51.938;15.480;2022-09-12T00:10:11;2.70;;;2.50;;
51925;SDS011;37952;51.938;15.480;2022-09-12T00:13:14;3.30;;;3.20;;
51925;SDS011;37952;51.938;15.480;2022-09-12T00:16:18;2.70;;;2.60;;
51925;SDS011;37952;51.938;15.480;2022-09-12T00:22:30;2.60;;;2.30;;
51925;SDS011;37952;51.938;15.480;2022-09-12T00:25:33;2.70;;;2.60;;
51925;SDS011;37952;51.938;15.480;2022-09-12T00:28:36;3.40;;;3.20;;
51925;SDS011;37952;51.938;15.480;2022-09-12T00:31:41;2.60;;;2.50;;
51925;SDS011;37952;51.938;15.480;2022-09-12T00:34:44;2.50;;;2.40;;
51925;SDS011;37952;51.938;15.480;2022-09-12T00:37:47;2.90;;;2.70;;
51925;SDS011;37952;51.938;15.480;2022-09-12T00:40:50;3.50;;;3.30;;
51925;SDS011;37952;51.938;15.480;2022-09-12T00:43:57;2.70;;;2.40;;
51925;SDS011;37952;51.938;15.480;2022-09-12T00:47:04;2.60;;;2.40;;
51925;SDS011;37952;51.938;15.480;2022-09-12T00:50:15;2.90;;;2.60;;
51925;SDS011;37952;51.938;15.480;2022-09-12T00:53:19;3.40;;;3.20;;
51925;SDS011;37952;51.938;15.480;2022-09-12T00:56:22;3.00;;;2.80;;
51925;SDS011;37952;51.938;15.480;2022-09-12T00:59:28;2.40;;;2.30;;
51925;SDS011;37952;51.938;15.480;2022-09-12T01:02:38;3.20;;;3.10;;
51925;SDS011;37952;51.938;15.480;2022-09-12T01:05:43;3.70;;;3.40;;
51925;SDS011;37952;51.938;15.480;2022-09-12T01:08:55;2.80;;;2.60;;
51925;SDS011;37952;51.938;15.480;2022-09-12T01:11:58;3.00;;;2.90;;
51925;SDS011;37952;51.938;15.480;2022-09-12T01:15:04;3.10;;;3.00;;
51925;SDS011;37952;51.938;15.480;2022-09-12T01:35:03;4.50;;;2.80;;
51925;SDS011;37952;51.938;15.480;2022-09-12T01:44:38;4.00;;;3.80;;
51925;SDS011;37952;51.938;15.480;2022-09-12T01:47:55;4.00;;;3.70;;
51925;SDS011;37952;51.938;15.480;2022-09-12T01:51:12;3.40;;;3.20;;
51925;SDS011;37952;51.938;15.480;2022-09-12T01:54:29;2.70;;;2.50;;
51925;SDS011;37952;51.938;15.480;2022-09-12T01:57:44;3.90;;;3.60;;
51925;SDS011;37952;51.938;15.480;2022-09-12T02:04:06;3.20;;;2.90;;
51925;SDS011;37952;51.938;15.480;2022-09-12T02:07:18;3.50;;;3.30;;
51925;SDS011;37952;51.938;15.480;2022-09-12T02:10:29;5.50;;;2.80;;
51925;SDS011;37952;51.938;15.480;2022-09-12T02:13:40;3.90;;;3.60;;
51925;SDS011;37952;51.938;15.480;2022-09-12T02:16:50;3.70;;;3.50;;
51925;SDS011;37952;51.938;15.480;2022-09-12T02:20:00;3.10;;;2.80;;
51925;SDS011;37952;51.938;15.480;2022-09-12T02:23:08;2.60;;;2.50;;
51925;SDS011;37952;51.938;15.480;2022-09-12T02:26:28;3.30;;;3.10;;
51925;SDS011;37952;51.938;15.480;2022-09-12T02:29:37;3.90;;;3.80;;
51925;SDS011;37952;51.938;15.480;2022-09-12T02:32:42;3.10;;;2.80;;
51925;SDS011;37952;51.938;15.480;2022-09-12T02:36:02;3.40;;;3.20;;
51925;SDS011;37952;51.938;15.480;2022-09-12T02:39:15;4.00;;;3.80;;
51925;SDS011;37952;51.938;15.480;2022-09-12T02:42:21;4.60;;;4.40;;
51925;SDS011;37952;51.938;15.480;2022-09-12T02:45:25;4.90;;;4.60;;
51925;SDS011;37952;51.938;15.480;2022-09-12T02:48:30;4.50;;;4.10;;
51925;SDS011;37952;51.938;15.480;2022-09-12T02:51:39;3.40;;;3.30;;
51925;SDS011;37952;51.938;15.480;2022-09-12T02:54:46;4.40;;;4.20;;
51925;SDS011;37952;51.938;15.480;2022-09-12T02:57:50;5.30;;;5.00;;
51925;SDS011;37952;51.938;15.480;2022-09-12T03:07:58;4.90;;;4.60;;
51925;SDS011;37952;51.938;15.480;2022-09-12T03:18:03;3.80;;;3.60;;
51925;SDS011;37952;51.938;15.480;2022-09-12T03:21:28;4.10;;;3.80;;
51925;SDS011;37952;51.938;15.480;2022-09-12T03:31:10;3.10;;;2.90;;
51925;SDS011;37952;51.938;15.480;2022-09-12T03:34:15;3.90;;;3.70;;
51925;SDS011;37952;51.938;15.480;2022-09-12T03:37:20;3.60;;;3.50;;
51925;SDS011;37952;51.938;15.480;2022-09-12T03:40:23;3.50;;;3.30;;
51925;SDS011;37952;51.938;15.480;2022-09-12T03:43:26;2.90;;;2.80;;
51925;SDS011;37952;51.938;15.480;2022-09-12T03:46:28;3.80;;;3.60;;
51925;SDS011;37952;51.938;15.480;2022-09-12T03:49:32;3.80;;;3.50;;
51925;SDS011;37952;51.938;15.480;2022-09-12T03:52:34;3.80;;;3.60;;
51925;SDS011;37952;51.938;15.480;2022-09-12T03:55:38;3.80;;;3.50;;
51925;SDS011;37952;51.938;15.480;2022-09-12T03:58:41;3.20;;;3.00;;
51925;SDS011;37952;51.938;15.480;2022-09-12T04:01:44;4.00;;;3.80;;
51925;SDS011;37952;51.938;15.480;2022-09-12T04:04:47;3.90;;;3.70;;
51925;SDS011;37952;51.938;15.480;2022-09-12T04:07:50;3.70;;;3.50;;
51925;SDS011;37952;51.938;15.480;2022-09-12T04:11:00;5.70;;;3.50;;
51925;SDS011;37952;51.938;15.480;2022-09-12T04:14:04;4.30;;;4.10;;
51925;SDS011;37952;51.938;15.480;2022-09-12T04:17:07;4.10;;;3.90;;
51925;SDS011;37952;51.938;15.480;2022-09-12T04:20:10;4.60;;;4.30;;
51925;SDS011;37952;51.938;15.480;2022-09-12T04:23:13;4.60;;;3.80;;
51925;SDS011;37952;51.938;15.480;2022-09-12T04:26:17;5.60;;;5.30;;
51925;SDS011;37952;51.938;15.480;2022-09-12T04:29:20;5.90;;;5.60;;
51925;SDS011;37952;51.938;15.480;2022-09-12T04:32:24;5.60;;;5.30;;
51925;SDS011;37952;51.938;15.480;2022-09-12T04:35:27;4.40;;;4.10;;
51925;SDS011;37952;51.938;15.480;2022-09-12T04:38:30;5.40;;;5.10;;
51925;SDS011;37952;51.938;15.480;2022-09-12T04:41:34;6.00;;;5.60;;
51925;SDS011;37952;51.938;15.480;2022-09-12T04:44:39;4.80;;;4.30;;
51925;SDS011;37952;51.938;15.480;2022-09-12T04:47:43;4.50;;;4.20;;
51925;SDS011;37952;51.938;15.480;2022-09-12T04:50:45;5.40;;;5.10;;
51925;SDS011;37952;51.938;15.480;2022-09-12T04:53:49;4.80;;;4.60;;
51925;SDS011;37952;51.938;15.480;2022-09-12T04:56:54;4.10;;;3.90;;
51925;SDS011;37952;51.938;15.480;2022-09-12T04:59:58;4.50;;;4.20;;
51925;SDS011;37952;51.938;15.480;2022-09-12T05:03:08;4.80;;;4.50;;
51925;SDS011;37952;51.938;15.480;2022-09-12T05:06:12;5.20;;;4.80;;
51925;SDS011;37952;51.938;15.480;2022-09-12T05:09:17;6.10;;;5.80;;
51925;SDS011;37952;51.938;15.480;2022-09-12T05:12:20;4.80;;;4.60;;
51925;SDS011;37952;51.938;15.480;2022-09-12T05:15:24;4.60;;;4.30;;
51925;SDS011;37952;51.938;15.480;2022-09-12T05:18:27;5.10;;;4.80;;
51925;SDS011;37952;51.938;15.480;2022-09-12T05:21:33;6.10;;;5.70;;
51925;SDS011;37952;51.938;15.480;2022-09-12T05:24:36;4.60;;;4.30;;
51925;SDS011;37952;51.938;15.480;2022-09-12T05:27:51;4.00;;;3.80;;
51925;SDS011;37952;51.938;15.480;2022-09-12T05:34:12;5.10;;;4.90;;
51925;SDS011;37952;51.938;15.480;2022-09-12T05:37:16;4.00;;;3.80;;
51925;SDS011;37952;51.938;15.480;2022-09-12T05:40:19;3.70;;;3.50;;
51925;SDS011;37952;51.938;15.480;2022-09-12T05:43:23;3.30;;;3.10;;
51925;SDS011;37952;51.938;15.480;2022-09-12T05:46:27;3.80;;;3.70;;
51925;SDS011;37952;51.938;15.480;2022-09-12T05:49:33;5.70;;;5.30;;
51925;SDS011;37952;51.938;15.480;2022-09-12T05:52:37;3.50;;;3.30;;
51925;SDS011;37952;51.938;15.480;2022-09-12T05:55:40;4.40;;;4.20;;
51925;SDS011;37952;51.938;15.480;2022-09-12T05:58:45;4.60;;;4.40;;
51925;SDS011;37952;51.938;15.480;2022-09-12T06:01:49;5.60;;;5.20;;
51925;SDS011;37952;51.938;15.480;2022-09-12T06:04:53;4.90;;;4.60;;
51925;SDS011;37952;51.938;15.480;2022-09-12T06:07:56;4.70;;;4.10;;
51925;SDS011;37952;51.938;15.480;2022-09-12T06:11:00;4.20;;;4.00;;
51925;SDS011;37952;51.938;15.480;2022-09-12T06:14:05;5.70;;;5.40;;
51925;SDS011;37952;51.938;15.480;2022-09-12T06:17:09;6.40;;;6.10;;
51925;SDS011;37952;51.938;15.480;2022-09-12T06:20:12;4.70;;;4.40;;
51925;SDS011;37952;51.938;15.480;2022-09-12T06:23:16;4.30;;;4.00;;
51925;SDS011;37952;51.938;15.480;2022-09-12T06:26:21;4.90;;;4.60;;
51925;SDS011;37952;51.938;15.480;2022-09-12T06:29:27;5.20;;;5.00;;
51925;SDS011;37952;51.938;15.480;2022-09-12T06:32:39;5.30;;;5.00;;
51925;SDS011;37952;51.938;15.480;2022-09-12T06:35:43;4.70;;;4.30;;
51925;SDS011;37952;51.938;15.480;2022-09-12T06:38:46;3.90;;;3.60;;
51925;SDS011;37952;51.938;15.480;2022-09-12T06:41:51;3.90;;;3.70;;
51925;SDS011;37952;51.938;15.480;2022-09-12T06:44:54;3.60;;;3.50;;
51925;SDS011;37952;51.938;15.480;2022-09-12T06:47:57;5.50;;;4.90;;
51925;SDS011;37952;51.938;15.480;2022-09-12T06:51:01;4.20;;;4.00;;
51925;SDS011;37952;51.938;15.480;2022-09-12T06:54:11;3.80;;;3.60;;
51925;SDS011;37952;51.938;15.480;2022-09-12T06:57:26;4.90;;;4.50;;
51925;SDS011;37952;51.938;15.480;2022-09-12T07:00:32;5.30;;;5.00;;
51925;SDS011;37952;51.938;15.480;2022-09-12T07:03:35;4.70;;;4.40;;
51925;SDS011;37952;51.938;15.480;2022-09-12T07:06:40;3.70;;;3.50;;
51925;SDS011;37952;51.938;15.480;2022-09-12T07:09:44;4.10;;;3.80;;
51925;SDS011;37952;51.938;15.480;2022-09-12T07:12:47;5.30;;;5.00;;
51925;SDS011;37952;51.938;15.480;2022-09-12T07:15:50;5.60;;;5.20;;
51925;SDS011;37952;51.938;15.480;2022-09-12T07:18:54;5.50;;;5.10;;
51925;SDS011;37952;51.938;15.480;2022-09-12T07:22:01;6.30;;;5.30;;
51925;SDS011;37952;51.938;15.480;2022-09-12T07:25:05;5.20;;;4.90;;
51925;SDS011;37952;51.938;15.480;2022-09-12T07:28:09;6.10;;;5.70;;
51925;SDS011;37952;51.938;15.480;2022-09-12T07:31:13;6.10;;;5.80;;
51925;SDS011;37952;51.938;15.480;2022-09-12T07:34:18;4.70;;;4.50;;
51925;SDS011;37952;51.938;15.480;2022-09-12T07:37:21;4.70;;;4.50;;
51925;SDS011;37952;51.938;15.480;2022-09-12T07:40:24;5.40;;;5.10;;
51925;SDS011;37952;51.938;15.480;2022-09-12T07:43:27;5.60;;;5.30;;
51925;SDS011;37952;51.938;15.480;2022-09-12T07:46:30;4.90;;;4.50;;
51925;SDS011;37952;51.938;15.480;2022-09-12T07:49:36;4.80;;;4.40;;
51925;SDS011;37952;51.938;15.480;2022-09-12T07:52:40;3.90;;;3.70;;
51925;SDS011;37952;51.938;15.480;2022-09-12T07:55:43;4.10;;;3.90;;
51925;SDS011;37952;51.938;15.480;2022-09-12T07:58:47;5.00;;;4.80;;
51925;SDS011;37952;51.938;15.480;2022-09-12T08:01:50;4.20;;;3.90;;
51925;SDS011;37952;51.938;15.480;2022-09-12T08:04:58;3.50;;;3.30;;
51925;SDS011;37952;51.938;15.480;2022-09-12T08:08:38;3.90;;;3.70;;
51925;SDS011;37952;51.938;15.480;2022-09-12T08:11:42;4.80;;;4.60;;
51925;SDS011;37952;51.938;15.480;2022-09-12T08:14:45;4.10;;;3.90;;
51925;SDS011;37952;51.938;15.480;2022-09-12T08:17:49;4.00;;;3.80;;
51925;SDS011;37952;51.938;15.480;2022-09-12T08:20:58;2.90;;;2.70;;
51925;SDS011;37952;51.938;15.480;2022-09-12T08:24:03;3.50;;;3.30;;
51925;SDS011;37952;51.938;15.480;2022-09-12T08:27:09;3.30;;;3.10;;
51925;SDS011;37952;51.938;15.480;2022-09-12T08:30:12;2.70;;;2.60;;
51925;SDS011;37952;51.938;15.480;2022-09-12T08:33:16;2.60;;;2.50;;
51925;SDS011;37952;51.938;15.480;2022-09-12T08:36:20;3.00;;;2.90;;
51925;SDS011;37952;51.938;15.480;2022-09-12T08:39:26;2.80;;;2.70;;
51925;SDS011;37952;51.938;15.480;2022-09-12T08:42:38;2.60;;;2.50;;
51925;SDS011;37952;51.938;15.480;2022-09-12T08:45:53;2.40;;;2.20;;
51925;SDS011;37952;51.938;15.480;2022-09-12T08:49:03;2.70;;;2.50;;
51925;SDS011;37952;51.938;15.480;2022-09-12T08:52:13;3.30;;;2.70;;
51925;SDS011;37952;51.938;15.480;2022-09-12T08:55:23;2.60;;;1.60;;
51925;SDS011;37952;51.938;15.480;2022-09-12T08:58:29;2.00;;;1.90;;
51925;SDS011;37952;51.938;15.480;2022-09-12T09:01:40;2.60;;;2.50;;
51925;SDS011;37952;51.938;15.480;2022-09-12T09:04:49;2.60;;;2.50;;
51925;SDS011;37952;51.938;15.480;2022-09-12T09:18:03;2.70;;;2.60;;
51925;SDS011;37952;51.938;15.480;2022-09-12T09:21:22;2.90;;;2.70;;
51925;SDS011;37952;51.938;15.480;2022-09-12T09:24:54;2.70;;;2.60;;
51925;SDS011;37952;51.938;15.480;2022-09-12T09:28:03;3.50;;;3.30;;
51925;SDS011;37952;51.938;15.480;2022-09-12T09:31:14;3.50;;;3.20;;
51925;SDS011;37952;51.938;15.480;2022-09-12T09:34:22;2.60;;;2.50;;
51925;SDS011;37952;51.938;15.480;2022-09-12T09:41:04;3.30;;;3.10;;
51925;SDS011;37952;51.938;15.480;2022-09-12T09:44:31;3.80;;;3.60;;
51925;SDS011;37952;51.938;15.480;2022-09-12T09:47:35;3.00;;;2.70;;
51925;SDS011;37952;51.938;15.480;2022-09-12T09:50:39;2.90;;;2.70;;
51925;SDS011;37952;51.938;15.480;2022-09-12T09:53:50;3.40;;;3.30;;
51925;SDS011;37952;51.938;15.480;2022-09-12T09:56:59;3.70;;;3.50;;
51925;SDS011;37952;51.938;15.480;2022-09-12T10:03:32;2.90;;;2.80;;
51925;SDS011;37952;51.938;15.480;2022-09-12T10:06:39;3.90;;;3.70;;
51925;SDS011;37952;51.938;15.480;2022-09-12T10:09:44;3.90;;;3.70;;
51925;SDS011;37952;51.938;15.480;2022-09-12T10:13:33;4.60;;;4.20;;
51925;SDS011;37952;51.938;15.480;2022-09-12T10:16:49;3.60;;;3.40;;
51925;SDS011;37952;51.938;15.480;2022-09-12T10:19:55;5.60;;;5.10;;
51925;SDS011;37952;51.938;15.480;2022-09-12T10:26:32;4.70;;;4.40;;
51925;SDS011;37952;51.938;15.480;2022-09-12T10:33:03;2.70;;;2.60;;
51925;SDS011;37952;51.938;15.480;2022-09-12T10:36:10;4.30;;;4.10;;
51925;SDS011;37952;51.938;15.480;2022-09-12T10:39:16;3.90;;;3.70;;
51925;SDS011;37952;51.938;15.480;2022-09-12T10:42:40;4.70;;;4.40;;
51925;SDS011;37952;51.938;15.480;2022-09-12T10:45:46;3.70;;;3.50;;
51925;SDS011;37952;51.938;15.480;2022-09-12T10:52:25;2.20;;;2.10;;
51925;SDS011;37952;51.938;15.480;2022-09-12T10:55:31;3.70;;;2.80;;
51925;SDS011;37952;51.938;15.480;2022-09-12T11:05:37;3.00;;;2.90;;
51925;SDS011;37952;51.938;15.480;2022-09-12T11:09:04;3.70;;;3.50;;
51925;SDS011;37952;51.938;15.480;2022-09-12T11:25:40;4.10;;;3.80;;
51925;SDS011;37952;51.938;15.480;2022-09-12T11:29:21;2.80;;;2.70;;
51925;SDS011;37952;51.938;15.480;2022-09-12T11:35:51;3.40;;;3.20;;
51925;SDS011;37952;51.938;15.480;2022-09-12T11:39:01;3.30;;;3.10;;
51925;SDS011;37952;51.938;15.480;2022-09-12T11:42:20;3.60;;;3.40;;
51925;SDS011;37952;51.938;15.480;2022-09-12T11:45:38;2.40;;;2.30;;
51925;SDS011;37952;51.938;15.480;2022-09-12T11:48:53;3.10;;;2.90;;
51925;SDS011;37952;51.938;15.480;2022-09-12T11:55:19;3.30;;;3.20;;
51925;SDS011;37952;51.938;15.480;2022-09-12T11:58:27;2.80;;;2.70;;
51925;SDS011;37952;51.938;15.480;2022-09-12T12:01:32;2.50;;;2.30;;
51925;SDS011;37952;51.938;15.480;2022-09-12T12:04:56;2.50;;;2.40;;
51925;SDS011;37952;51.938;15.480;2022-09-12T12:08:05;2.50;;;2.40;;
51925;SDS011;37952;51.938;15.480;2022-09-12T12:11:09;2.60;;;2.50;;
51925;SDS011;37952;51.938;15.480;2022-09-12T12:14:39;4.30;;;3.00;;
51925;SDS011;37952;51.938;15.480;2022-09-12T12:18:03;2.30;;;2.20;;
51925;SDS011;37952;51.938;15.480;2022-09-12T12:28:06;2.90;;;2.80;;
51925;SDS011;37952;51.938;15.480;2022-09-12T12:31:09;3.10;;;2.70;;
51925;SDS011;37952;51.938;15.480;2022-09-12T12:34:26;2.50;;;2.40;;
51925;SDS011;37952;51.938;15.480;2022-09-12T12:40:42;2.40;;;2.30;;
51925;SDS011;37952;51.938;15.480;2022-09-12T12:43:54;4.00;;;3.80;;
51925;SDS011;37952;51.938;15.480;2022-09-12T12:47:13;2.80;;;2.70;;
51925;SDS011;37952;51.938;15.480;2022-09-12T12:50:21;2.70;;;2.60;;
51925;SDS011;37952;51.938;15.480;2022-09-12T12:53:29;2.50;;;2.40;;
51925;SDS011;37952;51.938;15.480;2022-09-12T12:56:34;1.80;;;1.70;;
51925;SDS011;37952;51.938;15.480;2022-09-12T13:02:58;2.30;;;2.10;;
51925;SDS011;37952;51.938;15.480;2022-09-12T13:09:47;2.00;;;1.80;;
51925;SDS011;37952;51.938;15.480;2022-09-12T13:12:56;2.00;;;1.90;;
51925;SDS011;37952;51.938;15.480;2022-09-12T13:16:03;2.00;;;1.90;;
51925;SDS011;37952;51.938;15.480;2022-09-12T13:19:10;2.10;;;2.00;;
51925;SDS011;37952;51.938;15.480;2022-09-12T13:22:21;1.50;;;1.40;;
51925;SDS011;37952;51.938;15.480;2022-09-12T13:28:34;2.10;;;2.00;;
51925;SDS011;37952;51.938;15.480;2022-09-12T13:31:37;2.30;;;2.20;;
51925;SDS011;37952;51.938;15.480;2022-09-12T13:34:58;1.80;;;1.70;;
51925;SDS011;37952;51.938;15.480;2022-09-12T13:41:39;2.70;;;2.60;;
51925;SDS011;37952;51.938;15.480;2022-09-12T13:48:24;1.90;;;1.80;;
51925;SDS011;37952;51.938;15.480;2022-09-12T13:51:28;2.40;;;2.20;;
51925;SDS011;37952;51.938;15.480;2022-09-12T13:54:36;1.90;;;1.80;;
51925;SDS011;37952;51.938;15.480;2022-09-12T13:57:40;1.90;;;1.80;;
51925;SDS011;37952;51.938;15.480;2022-09-12T14:00:43;1.70;;;1.60;;
51925;SDS011;37952;51.938;15.480;2022-09-12T14:03:51;1.60;;;1.60;;
51925;SDS011;37952;51.938;15.480;2022-09-12T14:07:17;1.80;;;1.80;;
51925;SDS011;37952;51.938;15.480;2022-09-12T14:10:29;1.60;;;1.50;;
51925;SDS011;37952;51.938;15.480;2022-09-12T14:13:33;1.90;;;1.80;;
51925;SDS011;37952;51.938;15.480;2022-09-12T14:20:13;2.10;;;2.00;;
51925;SDS011;37952;51.938;15.480;2022-09-12T14:23:23;1.60;;;1.50;;
51925;SDS011;37952;51.938;15.480;2022-09-12T14:26:34;2.20;;;2.10;;
51925;SDS011;37952;51.938;15.480;2022-09-12T14:29:40;1.70;;;1.60;;
51925;SDS011;37952;51.938;15.480;2022-09-12T14:36:08;1.80;;;1.70;;
51925;SDS011;37952;51.938;15.480;2022-09-12T14:39:18;1.50;;;1.50;;
51925;SDS011;37952;51.938;15.480;2022-09-12T14:45:36;1.10;;;1.10;;
51925;SDS011;37952;51.938;15.480;2022-09-12T14:48:41;1.40;;;1.40;;
51925;SDS011;37952;51.938;15.480;2022-09-12T14:51:58;1.40;;;1.30;;
51925;SDS011;37952;51.938;15.480;2022-09-12T15:01:27;1.20;;;1.20;;
51925;SDS011;37952;51.938;15.480;2022-09-12T15:04:37;1.50;;;1.40;;
51925;SDS011;37952;51.938;15.480;2022-09-12T15:10:57;1.70;;;1.60;;
51925;SDS011;37952;51.938;15.480;2022-09-12T15:14:11;1.90;;;1.80;;
51925;SDS011;37952;51.938;15.480;2022-09-12T15:17:15;1.70;;;1.60;;
51925;SDS011;37952;51.938;15.480;2022-09-12T15:20:21;1.40;;;1.40;;
51925;SDS011;37952;51.938;15.480;2022-09-12T15:23:30;1.70;;;1.60;;
51925;SDS011;37952;51.938;15.480;2022-09-12T15:26:37;1.60;;;1.50;;
51925;SDS011;37952;51.938;15.480;2022-09-12T15:29:40;1.60;;;1.50;;
51925;SDS011;37952;51.938;15.480;2022-09-12T15:36:39;1.20;;;1.20;;
51925;SDS011;37952;51.938;15.480;2022-09-12T15:56:03;1.50;;;1.50;;
51925;SDS011;37952;51.938;15.480;2022-09-12T15:59:52;1.80;;;1.70;;
51925;SDS011;37952;51.938;15.480;2022-09-12T16:07:04;1.90;;;1.80;;
51925;SDS011;37952;51.938;15.480;2022-09-12T16:11:30;1.70;;;1.60;;
51925;SDS011;37952;51.938;15.480;2022-09-12T16:21:52;1.60;;;1.50;;
51925;SDS011;37952;51.938;15.480;2022-09-12T16:25:06;1.70;;;1.60;;
51925;SDS011;37952;51.938;15.480;2022-09-12T16:36:36;1.90;;;1.80;;
51925;SDS011;37952;51.938;15.480;2022-09-12T16:43:48;2.60;;;2.50;;
51925;SDS011;37952;51.938;15.480;2022-09-12T16:55:49;2.50;;;2.40;;
51925;SDS011;37952;51.938;15.480;2022-09-12T17:07:24;3.30;;;2.20;;
51925;SDS011;37952;51.938;15.480;2022-09-12T18:51:50;2.90;;;2.70;;
51925;SDS011;37952;51.938;15.480;2022-09-12T18:59:20;2.70;;;2.60;;
51925;SDS011;37952;51.938;15.480;2022-09-12T19:23:25;2.70;;;2.60;;
51925;SDS011;37952;51.938;15.480;2022-09-12T20:28:45;2.40;;;2.30;;
51925;SDS011;37952;51.938;15.480;2022-09-12T20:48:41;2.90;;;2.70;;
51925;SDS011;37952;51.938;15.480;2022-09-12T20:56:34;2.70;;;2.50;;
51925;SDS011;37952;51.938;15.480;2022-09-12T21:12:38;2.10;;;2.00;;
51925;SDS011;37952;51.938;15.480;2022-09-12T21:20:03;2.70;;;2.60;;
51925;SDS011;37952;51.938;15.480;2022-09-12T21:31:14;2.50;;;2.40;;
51925;SDS011;37952;51.938;15.480;2022-09-12T22:19:00;4.60;;;4.20;;
51925;SDS011;37952;51.938;15.480;2022-09-12T22:26:46;3.00;;;2.90;;
51925;SDS011;37952;51.938;15.480;2022-09-12T22:38:23;3.40;;;3.30;;
51925;SDS011;37952;51.938;15.480;2022-09-12T22:45:45;2.40;;;2.30;;
51925;SDS011;37952;51.938;15.480;2022-09-12T23:00:25;3.00;;;2.90;;
51925;SDS011;37952;51.938;15.480;2022-09-12T23:04:12;3.30;;;3.10;;
51925;SDS011;37952;51.938;15.480;2022-09-12T23:15:46;2.80;;;2.60;;
51925;SDS011;37952;51.938;15.480;2022-09-12T23:19:30;2.60;;;2.50;;
51925;SDS011;37952;51.938;15.480;2022-09-12T23:49:42;2.40;;;2.30;;
51925;SDS011;37952;51.938;15.480;2022-09-12T23:53:26;2.30;;;2.10;;
51925;SDS011;37952;51.938;15.480;2022-09-12T23:56:35;1.70;;;1.60;;
